sensor_id;sensor_type;location;lat;lon;timestamp;temperature;humidity
71291;DHT22;59073;51.994;4.448;2023-06-05T00:00:38;12.88;82.19
71291;DHT22;59073;51.994;4.448;2023-06-05T00:03:04;12.83;82.32
71291;DHT22;59073;51.994;4.448;2023-06-05T00:05:29;12.92;82.47
71291;DHT22;59073;51.994;4.448;2023-06-05T00:07:56;12.91;82.14
71291;DHT22;59073;51.994;4.448;2023-06-05T00:10:22;12.91;82.15
71291;DHT22;59073;51.994;4.448;2023-06-05T00:12:47;12.87;82.24
71291;DHT22;59073;51.994;4.448;2023-06-05T00:15:13;12.94;82.00
71291;DHT22;59073;51.994;4.448;2023-06-05T00:17:38;12.98;82.44
71291;DHT22;59073;51.994;4.448;2023-06-05T00:20:04;12.95;81.93
71291;DHT22;59073;51.994;4.448;2023-06-05T00:22:31;13.02;81.81
71291;DHT22;59073;51.994;4.448;2023-06-05T00:24:57;12.97;81.91
71291;DHT22;59073;51.994;4.448;2023-06-05T00:27:23;12.87;82.26
71291;DHT22;59073;51.994;4.448;2023-06-05T00:29:49;12.84;82.80
71291;DHT22;59073;51.994;4.448;2023-06-05T00:32:15;12.77;82.75
71291;DHT22;59073;51.994;4.448;2023-06-05T00:34:40;12.84;82.70
71291;DHT22;59073;51.994;4.448;2023-06-05T00:37:06;12.80;82.96
71291;DHT22;59073;51.994;4.448;2023-06-05T00:39:32;12.80;82.64
71291;DHT22;59073;51.994;4.448;2023-06-05T00:41:58;12.85;82.47
71291;DHT22;59073;51.994;4.448;2023-06-05T00:44:23;12.65;83.45
71291;DHT22;59073;51.994;4.448;2023-06-05T00:46:51;12.60;83.29
71291;DHT22;59073;51.994;4.448;2023-06-05T00:49:18;12.70;83.02
71291;DHT22;59073;51.994;4.448;2023-06-05T00:51:46;12.74;83.05
71291;DHT22;59073;51.994;4.448;2023-06-05T00:54:12;12.73;82.75
71291;DHT22;59073;51.994;4.448;2023-06-05T00:56:41;12.73;82.58
71291;DHT22;59073;51.994;4.448;2023-06-05T00:59:07;12.67;82.61
71291;DHT22;59073;51.994;4.448;2023-06-05T01:01:33;12.71;82.70
71291;DHT22;59073;51.994;4.448;2023-06-05T01:04:00;12.65;82.86
71291;DHT22;59073;51.994;4.448;2023-06-05T01:06:30;12.70;82.97
71291;DHT22;59073;51.994;4.448;2023-06-05T01:08:57;12.73;82.79
71291;DHT22;59073;51.994;4.448;2023-06-05T01:11:46;12.57;83.03
71291;DHT22;59073;51.994;4.448;2023-06-05T01:14:20;12.57;83.02
71291;DHT22;59073;51.994;4.448;2023-06-05T01:16:51;12.60;82.72
71291;DHT22;59073;51.994;4.448;2023-06-05T01:19:20;12.70;82.26
71291;DHT22;59073;51.994;4.448;2023-06-05T01:21:48;12.41;83.32
71291;DHT22;59073;51.994;4.448;2023-06-05T01:24:14;12.53;82.75
71291;DHT22;59073;51.994;4.448;2023-06-05T01:27:14;12.67;82.34
71291;DHT22;59073;51.994;4.448;2023-06-05T01:30:02;12.59;82.64
71291;DHT22;59073;51.994;4.448;2023-06-05T01:32:36;12.61;82.48
71291;DHT22;59073;51.994;4.448;2023-06-05T01:35:08;12.47;82.88
71291;DHT22;59073;51.994;4.448;2023-06-05T01:37:36;12.49;83.11
71291;DHT22;59073;51.994;4.448;2023-06-05T01:40:17;12.54;82.78
71291;DHT22;59073;51.994;4.448;2023-06-05T01:42:46;12.44;82.90
71291;DHT22;59073;51.994;4.448;2023-06-05T01:45:14;12.54;83.00
71291;DHT22;59073;51.994;4.448;2023-06-05T01:47:41;12.47;82.74
71291;DHT22;59073;51.994;4.448;2023-06-05T01:50:08;12.63;82.21
71291;DHT22;59073;51.994;4.448;2023-06-05T01:52:35;12.51;82.57
71291;DHT22;59073;51.994;4.448;2023-06-05T01:55:02;12.50;82.66
71291;DHT22;59073;51.994;4.448;2023-06-05T01:57:29;12.53;82.74
71291;DHT22;59073;51.994;4.448;2023-06-05T01:59:55;12.49;82.57
71291;DHT22;59073;51.994;4.448;2023-06-05T02:02:21;12.41;83.03
71291;DHT22;59073;51.994;4.448;2023-06-05T02:04:47;12.43;83.17
71291;DHT22;59073;51.994;4.448;2023-06-05T02:07:14;12.41;83.23
71291;DHT22;59073;51.994;4.448;2023-06-05T02:09:42;12.49;82.68
71291;DHT22;59073;51.994;4.448;2023-06-05T02:12:11;12.44;82.60
71291;DHT22;59073;51.994;4.448;2023-06-05T02:14:39;12.47;82.83
71291;DHT22;59073;51.994;4.448;2023-06-05T02:17:10;12.51;82.43
71291;DHT22;59073;51.994;4.448;2023-06-05T02:19:39;12.41;82.46
71291;DHT22;59073;51.994;4.448;2023-06-05T02:22:05;12.37;82.79
71291;DHT22;59073;51.994;4.448;2023-06-05T02:24:31;12.37;82.82
71291;DHT22;59073;51.994;4.448;2023-06-05T02:26:57;12.46;82.46
71291;DHT22;59073;51.994;4.448;2023-06-05T02:29:22;12.41;82.46
71291;DHT22;59073;51.994;4.448;2023-06-05T02:31:48;12.30;82.61
71291;DHT22;59073;51.994;4.448;2023-06-05T02:34:14;12.30;82.88
71291;DHT22;59073;51.994;4.448;2023-06-05T02:36:39;12.29;83.04
71291;DHT22;59073;51.994;4.448;2023-06-05T02:39:06;12.32;83.22
71291;DHT22;59073;51.994;4.448;2023-06-05T02:41:31;12.37;82.81
71291;DHT22;59073;51.994;4.448;2023-06-05T02:43:56;12.33;82.89
71291;DHT22;59073;51.994;4.448;2023-06-05T02:46:22;12.30;83.14
71291;DHT22;59073;51.994;4.448;2023-06-05T02:48:50;12.29;83.12
71291;DHT22;59073;51.994;4.448;2023-06-05T02:51:15;12.23;83.34
71291;DHT22;59073;51.994;4.448;2023-06-05T02:53:42;12.28;83.29
71291;DHT22;59073;51.994;4.448;2023-06-05T02:56:07;12.13;83.73
71291;DHT22;59073;51.994;4.448;2023-06-05T02:58:33;12.20;83.32
71291;DHT22;59073;51.994;4.448;2023-06-05T03:01:02;12.15;83.14
71291;DHT22;59073;51.994;4.448;2023-06-05T03:03:32;12.06;83.52
71291;DHT22;59073;51.994;4.448;2023-06-05T03:05:58;12.15;83.15
71291;DHT22;59073;51.994;4.448;2023-06-05T03:08:30;12.03;83.94
71291;DHT22;59073;51.994;4.448;2023-06-05T03:10:56;12.05;83.81
71291;DHT22;59073;51.994;4.448;2023-06-05T03:13:21;12.15;83.40
71291;DHT22;59073;51.994;4.448;2023-06-05T03:15:47;12.05;83.57
71291;DHT22;59073;51.994;4.448;2023-06-05T03:18:12;12.12;83.50
71291;DHT22;59073;51.994;4.448;2023-06-05T03:20:38;12.08;83.35
71291;DHT22;59073;51.994;4.448;2023-06-05T03:23:03;12.02;83.69
71291;DHT22;59073;51.994;4.448;2023-06-05T03:25:28;12.25;83.10
71291;DHT22;59073;51.994;4.448;2023-06-05T03:27:54;12.18;83.01
71291;DHT22;59073;51.994;4.448;2023-06-05T03:30:20;12.15;82.64
71291;DHT22;59073;51.994;4.448;2023-06-05T03:32:46;12.05;83.48
71291;DHT22;59073;51.994;4.448;2023-06-05T03:35:12;12.10;82.88
71291;DHT22;59073;51.994;4.448;2023-06-05T03:37:37;12.06;82.88
71291;DHT22;59073;51.994;4.448;2023-06-05T03:40:03;12.09;82.79
71291;DHT22;59073;51.994;4.448;2023-06-05T03:42:30;12.10;82.46
71291;DHT22;59073;51.994;4.448;2023-06-05T03:44:55;12.00;82.71
71291;DHT22;59073;51.994;4.448;2023-06-05T03:47:21;11.91;82.89
71291;DHT22;59073;51.994;4.448;2023-06-05T03:49:46;11.89;82.85
71291;DHT22;59073;51.994;4.448;2023-06-05T03:52:15;11.89;82.90
71291;DHT22;59073;51.994;4.448;2023-06-05T03:54:41;11.96;82.57
71291;DHT22;59073;51.994;4.448;2023-06-05T03:57:11;12.13;82.19
71291;DHT22;59073;51.994;4.448;2023-06-05T03:59:38;12.33;81.22
71291;DHT22;59073;51.994;4.448;2023-06-05T04:02:03;12.67;80.23
71291;DHT22;59073;51.994;4.448;2023-06-05T04:04:30;12.80;79.62
71291;DHT22;59073;51.994;4.448;2023-06-05T04:06:56;12.94;78.84
71291;DHT22;59073;51.994;4.448;2023-06-05T04:09:21;13.05;78.23
71291;DHT22;59073;51.994;4.448;2023-06-05T04:11:47;13.16;78.23
71291;DHT22;59073;51.994;4.448;2023-06-05T04:14:13;13.11;78.09
71291;DHT22;59073;51.994;4.448;2023-06-05T04:16:40;13.15;78.04
71291;DHT22;59073;51.994;4.448;2023-06-05T04:19:10;13.19;77.41
71291;DHT22;59073;51.994;4.448;2023-06-05T04:21:36;13.49;77.06
71291;DHT22;59073;51.994;4.448;2023-06-05T04:24:06;13.62;76.90
71291;DHT22;59073;51.994;4.448;2023-06-05T04:26:34;13.65;76.25
71291;DHT22;59073;51.994;4.448;2023-06-05T04:29:01;13.99;75.47
71291;DHT22;59073;51.994;4.448;2023-06-05T04:31:30;13.84;75.34
71291;DHT22;59073;51.994;4.448;2023-06-05T04:33:56;13.72;75.83
71291;DHT22;59073;51.994;4.448;2023-06-05T04:36:23;13.86;76.12
71291;DHT22;59073;51.994;4.448;2023-06-05T04:38:48;13.83;75.89
71291;DHT22;59073;51.994;4.448;2023-06-05T04:41:14;13.96;75.63
71291;DHT22;59073;51.994;4.448;2023-06-05T04:43:39;13.90;75.62
71291;DHT22;59073;51.994;4.448;2023-06-05T04:46:05;13.89;76.35
71291;DHT22;59073;51.994;4.448;2023-06-05T04:48:31;14.24;74.61
71291;DHT22;59073;51.994;4.448;2023-06-05T04:50:56;14.76;73.46
71291;DHT22;59073;51.994;4.448;2023-06-05T04:53:23;15.00;72.93
71291;DHT22;59073;51.994;4.448;2023-06-05T04:55:49;14.55;73.02
71291;DHT22;59073;51.994;4.448;2023-06-05T04:58:15;14.69;73.09
71291;DHT22;59073;51.994;4.448;2023-06-05T05:00:42;14.99;72.73
71291;DHT22;59073;51.994;4.448;2023-06-05T05:03:14;15.20;72.25
71291;DHT22;59073;51.994;4.448;2023-06-05T05:05:41;15.54;70.51
71291;DHT22;59073;51.994;4.448;2023-06-05T05:08:07;15.70;69.72
71291;DHT22;59073;51.994;4.448;2023-06-05T05:10:32;15.40;71.27
71291;DHT22;59073;51.994;4.448;2023-06-05T05:12:57;15.40;70.51
71291;DHT22;59073;51.994;4.448;2023-06-05T05:15:27;15.50;71.03
71291;DHT22;59073;51.994;4.448;2023-06-05T05:17:54;15.88;70.46
71291;DHT22;59073;51.994;4.448;2023-06-05T05:20:21;16.21;68.89
71291;DHT22;59073;51.994;4.448;2023-06-05T05:22:47;16.38;69.12
71291;DHT22;59073;51.994;4.448;2023-06-05T05:25:12;16.11;68.00
71291;DHT22;59073;51.994;4.448;2023-06-05T05:27:38;16.02;68.84
71291;DHT22;59073;51.994;4.448;2023-06-05T05:30:04;16.26;68.81
71291;DHT22;59073;51.994;4.448;2023-06-05T05:32:29;15.90;69.56
71291;DHT22;59073;51.994;4.448;2023-06-05T05:34:55;16.50;69.22
71291;DHT22;59073;51.994;4.448;2023-06-05T05:37:20;16.79;67.43
71291;DHT22;59073;51.994;4.448;2023-06-05T05:39:47;17.17;66.14
71291;DHT22;59073;51.994;4.448;2023-06-05T05:42:12;17.31;65.99
71291;DHT22;59073;51.994;4.448;2023-06-05T05:44:38;17.38;66.17
71291;DHT22;59073;51.994;4.448;2023-06-05T05:47:07;17.46;66.12
71291;DHT22;59073;51.994;4.448;2023-06-05T05:49:33;17.99;64.58
71291;DHT22;59073;51.994;4.448;2023-06-05T05:51:59;17.80;64.63
71291;DHT22;59073;51.994;4.448;2023-06-05T05:54:24;17.99;64.25
71291;DHT22;59073;51.994;4.448;2023-06-05T05:56:53;18.07;64.47
71291;DHT22;59073;51.994;4.448;2023-06-05T05:59:18;18.07;63.46
71291;DHT22;59073;51.994;4.448;2023-06-05T06:01:44;17.73;64.76
71291;DHT22;59073;51.994;4.448;2023-06-05T06:04:10;18.17;63.57
71291;DHT22;59073;51.994;4.448;2023-06-05T06:06:36;19.33;62.06
71291;DHT22;59073;51.994;4.448;2023-06-05T06:09:03;18.30;62.18
71291;DHT22;59073;51.994;4.448;2023-06-05T06:11:29;17.76;64.98
71291;DHT22;59073;51.994;4.448;2023-06-05T06:13:55;16.94;65.82
71291;DHT22;59073;51.994;4.448;2023-06-05T06:16:20;16.95;67.34
71291;DHT22;59073;51.994;4.448;2023-06-05T06:18:46;17.07;65.70
71291;DHT22;59073;51.994;4.448;2023-06-05T06:21:12;17.04;66.71
71291;DHT22;59073;51.994;4.448;2023-06-05T06:23:38;17.31;65.34
71291;DHT22;59073;51.994;4.448;2023-06-05T06:26:03;17.32;65.26
71291;DHT22;59073;51.994;4.448;2023-06-05T06:28:32;16.85;65.82
71291;DHT22;59073;51.994;4.448;2023-06-05T06:30:57;15.92;68.13
71291;DHT22;59073;51.994;4.448;2023-06-05T06:33:23;16.00;69.07
71291;DHT22;59073;51.994;4.448;2023-06-05T06:35:49;16.50;68.02
71291;DHT22;59073;51.994;4.448;2023-06-05T06:38:15;17.18;66.11
71291;DHT22;59073;51.994;4.448;2023-06-05T06:40:42;16.63;66.89
71291;DHT22;59073;51.994;4.448;2023-06-05T06:43:07;17.08;66.90
71291;DHT22;59073;51.994;4.448;2023-06-05T06:45:33;17.49;64.45
71291;DHT22;59073;51.994;4.448;2023-06-05T06:47:58;17.55;63.84
71291;DHT22;59073;51.994;4.448;2023-06-05T06:50:23;17.17;65.40
71291;DHT22;59073;51.994;4.448;2023-06-05T06:52:49;17.18;64.13
71291;DHT22;59073;51.994;4.448;2023-06-05T06:55:15;17.11;65.73
71291;DHT22;59073;51.994;4.448;2023-06-05T06:57:41;17.10;66.27
71291;DHT22;59073;51.994;4.448;2023-06-05T07:00:07;16.70;67.40
71291;DHT22;59073;51.994;4.448;2023-06-05T07:02:35;16.28;69.09
71291;DHT22;59073;51.994;4.448;2023-06-05T07:05:00;16.52;68.92
71291;DHT22;59073;51.994;4.448;2023-06-05T07:07:26;16.70;68.72
71291;DHT22;59073;51.994;4.448;2023-06-05T07:09:53;16.91;67.61
71291;DHT22;59073;51.994;4.448;2023-06-05T07:12:18;16.36;67.85
71291;DHT22;59073;51.994;4.448;2023-06-05T07:14:48;16.57;68.63
71291;DHT22;59073;51.994;4.448;2023-06-05T07:17:13;16.23;68.91
71291;DHT22;59073;51.994;4.448;2023-06-05T07:19:39;16.22;69.36
71291;DHT22;59073;51.994;4.448;2023-06-05T07:22:05;16.33;68.98
71291;DHT22;59073;51.994;4.448;2023-06-05T07:24:32;15.72;69.10
71291;DHT22;59073;51.994;4.448;2023-06-05T07:27:00;16.15;69.54
71291;DHT22;59073;51.994;4.448;2023-06-05T07:29:26;15.98;68.96
71291;DHT22;59073;51.994;4.448;2023-06-05T07:31:54;15.95;70.21
71291;DHT22;59073;51.994;4.448;2023-06-05T07:34:21;16.38;69.41
71291;DHT22;59073;51.994;4.448;2023-06-05T07:36:48;16.38;68.57
71291;DHT22;59073;51.994;4.448;2023-06-05T07:39:15;16.46;68.05
71291;DHT22;59073;51.994;4.448;2023-06-05T07:41:40;16.84;66.67
71291;DHT22;59073;51.994;4.448;2023-06-05T07:44:09;16.87;68.00
71291;DHT22;59073;51.994;4.448;2023-06-05T07:46:36;16.88;66.98
71291;DHT22;59073;51.994;4.448;2023-06-05T07:49:01;17.25;65.52
71291;DHT22;59073;51.994;4.448;2023-06-05T07:51:27;17.15;66.28
71291;DHT22;59073;51.994;4.448;2023-06-05T07:53:52;17.39;65.78
71291;DHT22;59073;51.994;4.448;2023-06-05T07:56:17;17.34;67.14
71291;DHT22;59073;51.994;4.448;2023-06-05T07:58:43;17.61;65.92
71291;DHT22;59073;51.994;4.448;2023-06-05T08:01:10;17.28;66.45
71291;DHT22;59073;51.994;4.448;2023-06-05T08:03:37;17.51;64.14
71291;DHT22;59073;51.994;4.448;2023-06-05T08:06:03;17.53;65.02
71291;DHT22;59073;51.994;4.448;2023-06-05T08:08:28;17.83;64.77
71291;DHT22;59073;51.994;4.448;2023-06-05T08:10:55;17.46;64.38
71291;DHT22;59073;51.994;4.448;2023-06-05T08:13:21;17.94;65.03
71291;DHT22;59073;51.994;4.448;2023-06-05T08:15:46;17.78;64.70
71291;DHT22;59073;51.994;4.448;2023-06-05T08:18:11;17.65;66.32
71291;DHT22;59073;51.994;4.448;2023-06-05T08:20:37;17.48;64.39
71291;DHT22;59073;51.994;4.448;2023-06-05T08:23:02;17.69;64.25
71291;DHT22;59073;51.994;4.448;2023-06-05T08:25:30;17.68;62.77
71291;DHT22;59073;51.994;4.448;2023-06-05T08:27:56;17.36;64.76
71291;DHT22;59073;51.994;4.448;2023-06-05T08:30:21;17.18;65.21
71291;DHT22;59073;51.994;4.448;2023-06-05T08:32:47;17.73;64.09
71291;DHT22;59073;51.994;4.448;2023-06-05T08:35:12;18.33;64.77
71291;DHT22;59073;51.994;4.448;2023-06-05T08:37:38;18.52;62.31
71291;DHT22;59073;51.994;4.448;2023-06-05T08:40:04;18.18;63.36
71291;DHT22;59073;51.994;4.448;2023-06-05T08:42:36;17.71;64.53
71291;DHT22;59073;51.994;4.448;2023-06-05T08:45:07;17.38;63.25
71291;DHT22;59073;51.994;4.448;2023-06-05T08:47:36;17.34;63.87
71291;DHT22;59073;51.994;4.448;2023-06-05T08:50:06;17.11;66.79
71291;DHT22;59073;51.994;4.448;2023-06-05T08:52:38;17.62;63.60
71291;DHT22;59073;51.994;4.448;2023-06-05T08:55:06;18.30;64.03
71291;DHT22;59073;51.994;4.448;2023-06-05T08:57:34;18.44;61.95
71291;DHT22;59073;51.994;4.448;2023-06-05T09:00:03;18.50;61.75
71291;DHT22;59073;51.994;4.448;2023-06-05T09:02:42;18.09;63.01
71291;DHT22;59073;51.994;4.448;2023-06-05T09:05:09;18.40;62.11
71291;DHT22;59073;51.994;4.448;2023-06-05T09:07:36;18.40;60.09
71291;DHT22;59073;51.994;4.448;2023-06-05T09:10:06;18.06;61.68
71291;DHT22;59073;51.994;4.448;2023-06-05T09:12:34;17.94;62.99
71291;DHT22;59073;51.994;4.448;2023-06-05T09:15:27;17.94;60.42
71291;DHT22;59073;51.994;4.448;2023-06-05T09:18:12;18.38;60.94
71291;DHT22;59073;51.994;4.448;2023-06-05T09:20:44;18.62;59.68
71291;DHT22;59073;51.994;4.448;2023-06-05T09:23:26;18.81;60.28
71291;DHT22;59073;51.994;4.448;2023-06-05T09:25:53;18.88;59.14
71291;DHT22;59073;51.994;4.448;2023-06-05T09:28:20;18.38;58.80
71291;DHT22;59073;51.994;4.448;2023-06-05T09:30:56;18.64;59.69
71291;DHT22;59073;51.994;4.448;2023-06-05T09:33:26;18.72;58.02
71291;DHT22;59073;51.994;4.448;2023-06-05T09:36:05;18.07;59.70
71291;DHT22;59073;51.994;4.448;2023-06-05T09:38:32;18.71;60.14
71291;DHT22;59073;51.994;4.448;2023-06-05T09:41:10;19.22;57.65
71291;DHT22;59073;51.994;4.448;2023-06-05T09:43:38;18.92;57.88
71291;DHT22;59073;51.994;4.448;2023-06-05T09:46:11;19.20;57.92
71291;DHT22;59073;51.994;4.448;2023-06-05T09:48:40;19.05;59.15
71291;DHT22;59073;51.994;4.448;2023-06-05T09:56:12;19.67;58.45
71291;DHT22;59073;51.994;4.448;2023-06-05T09:58:48;19.23;57.78
71291;DHT22;59073;51.994;4.448;2023-06-05T10:01:19;19.02;57.89
71291;DHT22;59073;51.994;4.448;2023-06-05T10:04:02;19.49;58.21
71291;DHT22;59073;51.994;4.448;2023-06-05T10:06:33;19.56;56.82
71291;DHT22;59073;51.994;4.448;2023-06-05T10:08:59;19.45;57.61
71291;DHT22;59073;51.994;4.448;2023-06-05T10:11:26;19.60;59.01
71291;DHT22;59073;51.994;4.448;2023-06-05T10:13:52;19.78;58.13
71291;DHT22;59073;51.994;4.448;2023-06-05T10:16:19;19.78;57.19
71291;DHT22;59073;51.994;4.448;2023-06-05T10:18:48;20.08;56.92
71291;DHT22;59073;51.994;4.448;2023-06-05T10:21:15;19.52;57.18
71291;DHT22;59073;51.994;4.448;2023-06-05T10:23:48;19.39;57.62
71291;DHT22;59073;51.994;4.448;2023-06-05T10:29:33;19.47;58.97
71291;DHT22;59073;51.994;4.448;2023-06-05T10:32:05;19.52;58.86
71291;DHT22;59073;51.994;4.448;2023-06-05T10:37:47;19.77;59.47
71291;DHT22;59073;51.994;4.448;2023-06-05T10:40:17;20.11;57.02
71291;DHT22;59073;51.994;4.448;2023-06-05T10:42:44;20.15;57.70
71291;DHT22;59073;51.994;4.448;2023-06-05T10:45:09;19.81;56.99
71291;DHT22;59073;51.994;4.448;2023-06-05T10:52:52;19.34;57.20
71291;DHT22;59073;51.994;4.448;2023-06-05T10:55:21;19.98;58.39
71291;DHT22;59073;51.994;4.448;2023-06-05T10:58:07;20.12;57.94
71291;DHT22;59073;51.994;4.448;2023-06-05T11:00:34;20.33;56.68
71291;DHT22;59073;51.994;4.448;2023-06-05T11:03:00;20.12;56.35
71291;DHT22;59073;51.994;4.448;2023-06-05T11:05:27;20.04;55.75
71291;DHT22;59073;51.994;4.448;2023-06-05T11:08:14;20.15;57.63
71291;DHT22;59073;51.994;4.448;2023-06-05T11:11:02;20.00;56.93
71291;DHT22;59073;51.994;4.448;2023-06-05T11:13:56;19.92;56.61
71291;DHT22;59073;51.994;4.448;2023-06-05T11:16:30;19.94;58.27
71291;DHT22;59073;51.994;4.448;2023-06-05T11:24:28;20.99;55.86
71291;DHT22;59073;51.994;4.448;2023-06-05T11:26:53;20.69;54.25
71291;DHT22;59073;51.994;4.448;2023-06-05T11:29:19;20.46;57.76
71291;DHT22;59073;51.994;4.448;2023-06-05T11:31:45;20.46;57.73
71291;DHT22;59073;51.994;4.448;2023-06-05T11:34:13;20.55;59.76
71291;DHT22;59073;51.994;4.448;2023-06-05T11:36:38;20.42;57.20
71291;DHT22;59073;51.994;4.448;2023-06-05T11:39:05;20.04;56.20
71291;DHT22;59073;51.994;4.448;2023-06-05T11:41:30;20.24;58.50
71291;DHT22;59073;51.994;4.448;2023-06-05T11:43:56;20.26;57.89
71291;DHT22;59073;51.994;4.448;2023-06-05T11:46:42;19.95;60.37
71291;DHT22;59073;51.994;4.448;2023-06-05T11:49:28;19.77;61.20
71291;DHT22;59073;51.994;4.448;2023-06-05T11:51:54;19.61;62.57
71291;DHT22;59073;51.994;4.448;2023-06-05T11:54:31;19.90;61.85
71291;DHT22;59073;51.994;4.448;2023-06-05T11:57:05;19.45;61.55
71291;DHT22;59073;51.994;4.448;2023-06-05T11:59:36;19.36;62.13
71291;DHT22;59073;51.994;4.448;2023-06-05T12:02:03;19.49;63.52
71291;DHT22;59073;51.994;4.448;2023-06-05T12:04:30;19.20;61.17
71291;DHT22;59073;51.994;4.448;2023-06-05T12:06:56;19.18;64.24
71291;DHT22;59073;51.994;4.448;2023-06-05T12:09:22;19.06;64.44
71291;DHT22;59073;51.994;4.448;2023-06-05T12:11:49;19.02;63.31
71291;DHT22;59073;51.994;4.448;2023-06-05T12:14:41;19.19;64.14
71291;DHT22;59073;51.994;4.448;2023-06-05T12:17:10;19.26;64.52
71291;DHT22;59073;51.994;4.448;2023-06-05T12:19:36;19.15;64.68
71291;DHT22;59073;51.994;4.448;2023-06-05T12:22:05;19.40;63.09
71291;DHT22;59073;51.994;4.448;2023-06-05T12:24:31;19.49;65.18
71291;DHT22;59073;51.994;4.448;2023-06-05T12:26:59;19.46;64.13
71291;DHT22;59073;51.994;4.448;2023-06-05T12:29:27;19.56;64.41
71291;DHT22;59073;51.994;4.448;2023-06-05T12:31:54;19.70;63.37
71291;DHT22;59073;51.994;4.448;2023-06-05T12:34:45;19.36;64.62
71291;DHT22;59073;51.994;4.448;2023-06-05T12:37:24;19.08;64.13
71291;DHT22;59073;51.994;4.448;2023-06-05T12:39:53;19.03;64.54
71291;DHT22;59073;51.994;4.448;2023-06-05T12:42:18;19.02;65.62
71291;DHT22;59073;51.994;4.448;2023-06-05T12:44:44;18.95;65.53
71291;DHT22;59073;51.994;4.448;2023-06-05T12:47:10;19.06;65.05
71291;DHT22;59073;51.994;4.448;2023-06-05T12:49:35;18.87;64.99
71291;DHT22;59073;51.994;4.448;2023-06-05T12:52:00;18.87;66.16
71291;DHT22;59073;51.994;4.448;2023-06-05T12:54:27;18.67;64.80
71291;DHT22;59073;51.994;4.448;2023-06-05T12:56:53;18.98;64.28
71291;DHT22;59073;51.994;4.448;2023-06-05T12:59:20;19.23;64.75
71291;DHT22;59073;51.994;4.448;2023-06-05T13:01:46;18.99;63.61
71291;DHT22;59073;51.994;4.448;2023-06-05T13:04:12;18.41;65.04
71291;DHT22;59073;51.994;4.448;2023-06-05T13:06:37;18.60;64.61
71291;DHT22;59073;51.994;4.448;2023-06-05T13:09:03;18.79;64.66
71291;DHT22;59073;51.994;4.448;2023-06-05T13:11:29;18.74;64.55
71291;DHT22;59073;51.994;4.448;2023-06-05T13:13:55;18.74;64.02
71291;DHT22;59073;51.994;4.448;2023-06-05T13:16:20;18.52;64.84
71291;DHT22;59073;51.994;4.448;2023-06-05T13:18:46;18.68;65.39
71291;DHT22;59073;51.994;4.448;2023-06-05T13:21:11;19.06;67.07
71291;DHT22;59073;51.994;4.448;2023-06-05T13:23:36;18.82;64.40
71291;DHT22;59073;51.994;4.448;2023-06-05T13:26:02;18.79;65.77
71291;DHT22;59073;51.994;4.448;2023-06-05T13:28:29;18.50;64.88
71291;DHT22;59073;51.994;4.448;2023-06-05T13:30:55;18.62;64.79
71291;DHT22;59073;51.994;4.448;2023-06-05T13:33:22;18.74;64.89
71291;DHT22;59073;51.994;4.448;2023-06-05T13:35:48;18.91;65.45
71291;DHT22;59073;51.994;4.448;2023-06-05T13:38:13;18.76;65.50
71291;DHT22;59073;51.994;4.448;2023-06-05T13:40:39;19.05;65.08
71291;DHT22;59073;51.994;4.448;2023-06-05T13:43:06;18.82;64.70
71291;DHT22;59073;51.994;4.448;2023-06-05T13:45:32;18.94;65.62
71291;DHT22;59073;51.994;4.448;2023-06-05T13:47:57;18.72;64.86
71291;DHT22;59073;51.994;4.448;2023-06-05T13:50:23;19.12;64.98
71291;DHT22;59073;51.994;4.448;2023-06-05T13:52:48;18.92;63.69
71291;DHT22;59073;51.994;4.448;2023-06-05T13:55:14;18.76;64.77
71291;DHT22;59073;51.994;4.448;2023-06-05T13:57:40;18.47;66.05
71291;DHT22;59073;51.994;4.448;2023-06-05T14:00:06;18.60;66.29
71291;DHT22;59073;51.994;4.448;2023-06-05T14:02:32;18.76;67.81
71291;DHT22;59073;51.994;4.448;2023-06-05T14:04:58;18.61;65.70
71291;DHT22;59073;51.994;4.448;2023-06-05T14:07:23;18.40;66.51
71291;DHT22;59073;51.994;4.448;2023-06-05T14:09:49;18.40;67.47
71291;DHT22;59073;51.994;4.448;2023-06-05T14:12:15;18.45;66.21
71291;DHT22;59073;51.994;4.448;2023-06-05T14:14:41;18.27;66.98
71291;DHT22;59073;51.994;4.448;2023-06-05T14:17:07;18.31;67.73
71291;DHT22;59073;51.994;4.448;2023-06-05T14:19:32;18.36;66.30
71291;DHT22;59073;51.994;4.448;2023-06-05T14:21:58;18.45;66.97
71291;DHT22;59073;51.994;4.448;2023-06-05T14:24:23;18.23;66.75
71291;DHT22;59073;51.994;4.448;2023-06-05T14:26:49;18.09;66.83
71291;DHT22;59073;51.994;4.448;2023-06-05T14:29:15;18.14;68.43
71291;DHT22;59073;51.994;4.448;2023-06-05T14:31:40;18.36;65.55
71291;DHT22;59073;51.994;4.448;2023-06-05T14:34:06;18.44;66.31
71291;DHT22;59073;51.994;4.448;2023-06-05T14:36:31;18.31;67.72
71291;DHT22;59073;51.994;4.448;2023-06-05T14:38:57;18.41;67.72
71291;DHT22;59073;51.994;4.448;2023-06-05T14:41:23;18.12;66.75
71291;DHT22;59073;51.994;4.448;2023-06-05T14:43:48;18.07;68.18
71291;DHT22;59073;51.994;4.448;2023-06-05T14:46:14;18.10;67.52
71291;DHT22;59073;51.994;4.448;2023-06-05T14:48:39;18.09;67.70
71291;DHT22;59073;51.994;4.448;2023-06-05T14:51:07;18.47;67.88
71291;DHT22;59073;51.994;4.448;2023-06-05T14:53:32;18.44;66.85
71291;DHT22;59073;51.994;4.448;2023-06-05T14:55:58;18.27;67.75
71291;DHT22;59073;51.994;4.448;2023-06-05T14:58:23;18.31;66.94
71291;DHT22;59073;51.994;4.448;2023-06-05T15:00:49;18.04;67.51
71291;DHT22;59073;51.994;4.448;2023-06-05T15:03:14;18.12;68.05
71291;DHT22;59073;51.994;4.448;2023-06-05T15:05:40;18.04;67.34
71291;DHT22;59073;51.994;4.448;2023-06-05T15:08:06;17.75;67.14
71291;DHT22;59073;51.994;4.448;2023-06-05T15:10:32;17.75;69.74
71291;DHT22;59073;51.994;4.448;2023-06-05T15:12:57;17.87;67.97
71291;DHT22;59073;51.994;4.448;2023-06-05T15:15:23;18.10;67.54
71291;DHT22;59073;51.994;4.448;2023-06-05T15:17:49;17.97;66.54
71291;DHT22;59073;51.994;4.448;2023-06-05T15:20:18;17.92;68.23
71291;DHT22;59073;51.994;4.448;2023-06-05T15:22:45;17.90;67.60
71291;DHT22;59073;51.994;4.448;2023-06-05T15:25:10;17.65;67.38
71291;DHT22;59073;51.994;4.448;2023-06-05T15:27:36;17.75;67.62
71291;DHT22;59073;51.994;4.448;2023-06-05T15:30:02;17.66;66.83
71291;DHT22;59073;51.994;4.448;2023-06-05T15:32:28;17.83;68.01
71291;DHT22;59073;51.994;4.448;2023-06-05T15:34:53;17.61;68.45
71291;DHT22;59073;51.994;4.448;2023-06-05T15:37:19;17.53;68.47
71291;DHT22;59073;51.994;4.448;2023-06-05T15:39:44;17.63;68.14
71291;DHT22;59073;51.994;4.448;2023-06-05T15:42:10;17.61;67.77
71291;DHT22;59073;51.994;4.448;2023-06-05T15:44:39;17.48;67.16
71291;DHT22;59073;51.994;4.448;2023-06-05T15:47:06;17.32;67.06
71291;DHT22;59073;51.994;4.448;2023-06-05T15:49:32;17.52;67.55
71291;DHT22;59073;51.994;4.448;2023-06-05T15:51:57;17.51;68.56
71291;DHT22;59073;51.994;4.448;2023-06-05T15:54:23;17.32;67.85